Time;durP1;ratioP1;P1;durP2;ratioP2;P2;SDS_P1;SDS_P2;PMS_P1;PMS_P2;Temp;Humidity;BMP_temperature;BMP_pressure;BME280_temperature;BME280_humidity;BME280_pressure;Samples;Min_cycle;Max_cycle;Signal;HPM_P1;HPM_P2
2022/04/26 03:38:33;;;;;;;;;8.00;5.75;;;;;;;;5036711;28;45538;-62
2022/04/26 03:40:58;;;;;;;;;10.00;9.00;;;;;;;;5036767;28;45434;-62
2022/04/26 03:43:24;;;;;;;;;9.00;7.00;;;;;;;;5036859;28;45425;-62
2022/04/26 03:45:49;;;;;;;;;8.25;7.00;;;;;;;;5036581;28;45421;-62
2022/04/26 03:48:14;;;;;;;;;6.50;6.50;;;;;;;;5036407;28;45476;-62
2022/04/26 03:50:40;;;;;;;;;7.25;6.25;;;;;;;;5036685;28;45220;-62
2022/04/26 03:53:05;;;;;;;;;7.00;6.50;;;;;;;;5036674;28;45523;-62
2022/04/26 03:55:30;;;;;;;;;10.75;6.75;;;;;;;;5036434;28;45921;-62
2022/04/26 03:57:57;;;;;;;;;12.25;8.75;;;;;;;;5036515;28;45435;-62
2022/04/26 04:00:23;;;;;;;;;6.25;6.00;;;;;;;;5038201;28;45251;-62
2022/04/26 04:02:48;;;;;;;;;6.75;6.00;;;;;;;;5040394;28;45404;-62
2022/04/26 04:05:13;;;;;;;;;7.00;7.00;;;;;;;;5039768;28;46164;-62
2022/04/26 04:07:39;;;;;;;;;8.50;8.25;;;;;;;;5039755;28;45196;-62
2022/04/26 04:10:04;;;;;;;;;5.00;5.00;;;;;;;;5039938;28;45465;-62
2022/04/26 04:12:30;;;;;;;;;6.75;6.25;;;;;;;;5039770;28;45518;-62
2022/04/26 04:14:55;;;;;;;;;12.00;9.75;;;;;;;;5039547;28;46099;-63
2022/04/26 04:17:20;;;;;;;;;7.00;7.00;;;;;;;;5039955;28;45488;-62
2022/04/26 04:19:47;;;;;;;;;7.00;7.00;;;;;;;;5039784;28;45463;-62
2022/04/26 04:22:14;;;;;;;;;8.75;7.00;;;;;;;;5039860;28;45845;-62
2022/04/26 04:24:39;;;;;;;;;12.25;8.75;;;;;;;;5039251;28;45363;-62
2022/04/26 04:27:05;;;;;;;;;7.00;7.00;;;;;;;;5039252;28;45379;-62
2022/04/26 04:29:30;;;;;;;;;8.25;7.00;;;;;;;;5039763;28;45503;-62
2022/04/26 04:31:55;;;;;;;;;6.25;6.25;;;;;;;;5039659;28;45349;-62
2022/04/26 04:34:22;;;;;;;;;9.25;7.75;;;;;;;;5039665;28;46141;-62
2022/04/26 04:36:47;;;;;;;;;9.00;9.00;;;;;;;;5037949;28;45426;-62
2022/04/26 04:39:19;;;;;;;;;5.25;5.00;;;;;;;;5039389;28;45429;-62
2022/04/26 04:41:44;;;;;;;;;8.75;7.00;;;;;;;;5039358;28;45294;-62
2022/04/26 04:44:09;;;;;;;;;9.00;7.25;;;;;;;;5039076;28;45989;-62
2022/04/26 04:46:35;;;;;;;;;5.50;5.50;;;;;;;;5039197;28;45392;-62
2022/04/26 04:49:00;;;;;;;;;7.50;7.00;;;;;;;;5039371;28;45415;-62
2022/04/26 04:51:25;;;;;;;;;11.00;10.00;;;;;;;;5039389;28;45559;-63
2022/04/26 04:53:51;;;;;;;;;8.75;8.75;;;;;;;;5039187;28;45237;-62
2022/04/26 04:56:16;;;;;;;;;7.75;7.25;;;;;;;;5038845;28;45494;-62
2022/04/26 04:58:41;;;;;;;;;7.75;7.25;;;;;;;;5039018;28;45244;-62
2022/04/26 05:01:07;;;;;;;;;7.00;7.00;;;;;;;;5039106;28;45477;-62
2022/04/26 05:03:32;;;;;;;;;8.25;7.50;;;;;;;;5038671;28;45484;-62
2022/04/26 05:05:58;;;;;;;;;6.75;6.50;;;;;;;;5037620;28;45496;-61
2022/04/26 05:08:24;;;;;;;;;7.25;6.25;;;;;;;;5038074;28;45478;-64
2022/04/26 05:10:50;;;;;;;;;8.00;7.25;;;;;;;;5037430;28;45348;-64
2022/04/26 05:13:15;;;;;;;;;26.50;21.25;;;;;;;;5037242;28;46168;-66
2022/04/26 05:15:44;;;;;;;;;22.50;21.75;;;;;;;;5037874;28;45282;-62
2022/04/26 05:18:10;;;;;;;;;9.25;9.25;;;;;;;;5037795;28;45516;-62
2022/04/26 05:20:36;;;;;;;;;46.75;36.75;;;;;;;;5037693;28;45536;-62
2022/04/26 05:25:45;;;;;;;;;24.75;23.75;;;;;;;;5035600;28;45592;-62
2022/04/26 05:28:11;;;;;;;;;11.00;10.50;;;;;;;;5037561;28;45545;-62
2022/04/26 05:30:36;;;;;;;;;11.00;10.75;;;;;;;;5037815;28;45542;-62
2022/04/26 05:33:02;;;;;;;;;58.00;47.25;;;;;;;;5037273;28;45545;-62
2022/04/26 05:35:27;;;;;;;;;14.00;13.25;;;;;;;;5037567;28;45533;-62
2022/04/26 05:37:52;;;;;;;;;10.00;10.00;;;;;;;;5037518;28;45433;-63
2022/04/26 05:40:18;;;;;;;;;10.25;10.00;;;;;;;;5037473;28;45370;-63
2022/04/26 05:42:43;;;;;;;;;10.00;9.75;;;;;;;;5037269;28;45461;-62
2022/04/26 05:45:08;;;;;;;;;10.25;8.75;;;;;;;;5037379;28;45433;-63
2022/04/26 05:47:34;;;;;;;;;23.75;23.25;;;;;;;;5037267;28;45433;-64
2022/04/26 05:49:59;;;;;;;;;24.50;24.50;;;;;;;;5037381;28;45437;-62
2022/04/26 05:52:24;;;;;;;;;8.25;8.25;;;;;;;;5036991;28;46131;-65
2022/04/26 05:54:53;;;;;;;;;8.50;8.50;;;;;;;;5037112;28;45307;-62
2022/04/26 05:57:18;;;;;;;;;15.00;15.00;;;;;;;;5037163;28;45426;-63
2022/04/26 05:59:43;;;;;;;;;10.25;10.25;;;;;;;;5037335;28;45402;-62
2022/04/26 06:02:09;;;;;;;;;10.00;8.50;;;;;;;;5036956;28;45255;-62
2022/04/26 06:04:37;;;;;;;;;9.25;9.25;;;;;;;;5036975;28;45335;-63
2022/04/26 06:07:03;;;;;;;;;17.25;15.75;;;;;;;;5036753;28;45432;-62
2022/04/26 06:09:28;;;;;;;;;19.00;18.00;;;;;;;;5037203;28;45643;-63
2022/04/26 06:11:53;;;;;;;;;14.25;13.50;;;;;;;;5037067;28;45660;-63
2022/04/26 06:14:19;;;;;;;;;13.50;11.75;;;;;;;;5037033;28;45522;-63
2022/04/26 06:16:44;;;;;;;;;13.50;11.25;;;;;;;;5036697;28;45557;-63
2022/04/26 06:19:10;;;;;;;;;28.25;24.00;;;;;;;;5036743;28;45416;-63
2022/04/26 06:21:35;;;;;;;;;34.50;32.00;;;;;;;;5036329;28;45882;-63
2022/04/26 06:24:00;;;;;;;;;11.50;11.50;;;;;;;;5036470;28;45475;-63
2022/04/26 06:26:26;;;;;;;;;7.50;5.75;;;;;;;;5037025;28;45441;-63
2022/04/26 06:28:51;;;;;;;;;7.00;7.00;;;;;;;;5037770;28;45985;-63
2022/04/26 06:31:16;;;;;;;;;19.00;17.25;;;;;;;;5037117;28;45465;-64
2022/04/26 06:33:42;;;;;;;;;18.33;17.00;;;;;;;;5037328;28;45448;-64
2022/04/26 06:36:07;;;;;;;;;17.50;17.00;;;;;;;;5037269;28;45496;-64
2022/04/26 06:38:32;;;;;;;;;19.33;19.00;;;;;;;;5037445;28;45528;-64
2022/04/26 06:40:58;;;;;;;;;6.00;6.00;;;;;;;;5037493;28;45437;-64
2022/04/26 06:43:23;;;;;;;;;8.00;7.00;;;;;;;;5037212;28;45387;-64
2022/04/26 06:45:48;;;;;;;;;6.67;5.33;;;;;;;;5037476;28;45699;-64
2022/04/26 06:48:14;;;;;;;;;8.33;8.00;;;;;;;;5037357;28;45361;-64
2022/04/26 06:50:40;;;;;;;;;7.00;7.00;;;;;;;;5037089;28;45474;-64
2022/04/26 06:53:05;;;;;;;;;6.00;5.00;;;;;;;;5036919;28;45578;-64
2022/04/26 06:55:31;;;;;;;;;6.67;6.00;;;;;;;;5037494;28;45515;-64
2022/04/26 06:57:57;;;;;;;;;6.00;5.67;;;;;;;;5037802;28;45220;-64
2022/04/26 07:00:22;;;;;;;;;4.67;4.00;;;;;;;;5036929;28;46129;-64
2022/04/26 07:02:47;;;;;;;;;7.33;6.33;;;;;;;;5036920;28;45577;-65
2022/04/26 07:05:14;;;;;;;;;7.00;6.33;;;;;;;;5037190;28;45214;-64
2022/04/26 07:07:39;;;;;;;;;6.33;5.33;;;;;;;;5035697;28;45224;-64
2022/04/26 07:10:05;;;;;;;;;4.00;4.00;;;;;;;;5035955;28;45374;-64
2022/04/26 07:12:31;;;;;;;;;6.67;6.00;;;;;;;;5036173;28;45351;-64
2022/04/26 07:14:57;;;;;;;;;4.00;4.00;;;;;;;;5036315;28;45381;-64
2022/04/26 07:17:22;;;;;;;;;3.67;3.33;;;;;;;;5036964;28;45347;-64
2022/04/26 07:19:48;;;;;;;;;3.00;2.67;;;;;;;;5036011;28;45596;-65
2022/04/26 07:22:14;;;;;;;;;2.33;2.33;;;;;;;;5035443;28;45419;-66
2022/04/26 07:24:39;;;;;;;;;2.00;2.00;;;;;;;;5035825;28;45595;-64
2022/04/26 07:27:05;;;;;;;;;3.00;3.00;;;;;;;;5035898;28;45606;-65
2022/04/26 07:29:30;;;;;;;;;3.00;2.67;;;;;;;;5035809;28;45539;-64
2022/04/26 07:31:56;;;;;;;;;3.67;3.67;;;;;;;;5035809;28;45351;-64
2022/04/26 07:34:21;;;;;;;;;3.00;3.00;;;;;;;;5036374;28;45502;-64
2022/04/26 07:36:47;;;;;;;;;2.67;2.67;;;;;;;;5039771;28;45575;-65
2022/04/26 07:39:14;;;;;;;;;3.67;3.33;;;;;;;;5038918;28;45590;-62
2022/04/26 07:41:40;;;;;;;;;3.67;3.67;;;;;;;;5038038;28;46265;-63
2022/04/26 07:44:05;;;;;;;;;3.67;3.67;;;;;;;;5038367;28;45521;-63
2022/04/26 07:46:30;;;;;;;;;2.67;2.67;;;;;;;;5038938;28;45955;-63
2022/04/26 07:48:56;;;;;;;;;2.67;2.67;;;;;;;;5038295;28;46128;-67
2022/04/26 07:51:21;;;;;;;;;3.00;2.67;;;;;;;;5037999;28;45537;-65
2022/04/26 07:53:47;;;;;;;;;2.00;2.00;;;;;;;;5038254;28;45449;-64
2022/04/26 07:56:13;;;;;;;;;4.00;4.00;;;;;;;;5039175;28;45441;-64
2022/04/26 07:58:38;;;;;;;;;2.00;2.00;;;;;;;;5038697;28;46272;-63
2022/04/26 08:01:04;;;;;;;;;2.33;2.33;;;;;;;;5038186;28;45831;-64
2022/04/26 08:03:32;;;;;;;;;3.67;3.00;;;;;;;;5038320;28;45522;-63
2022/04/26 08:05:58;;;;;;;;;3.00;2.33;;;;;;;;5038480;28;45422;-63
2022/04/26 08:08:23;;;;;;;;;2.00;2.00;;;;;;;;5037812;28;46172;-64
2022/04/26 08:10:49;;;;;;;;;2.33;2.33;;;;;;;;5016784;27;45752;-64
2022/04/26 08:13:15;;;;;;;;;3.33;3.33;;;;;;;;5050306;28;45349;-63
2022/04/26 08:15:40;;;;;;;;;2.67;2.67;;;;;;;;5046860;28;45729;-69
2022/04/26 08:18:06;;;;;;;;;1.67;1.67;;;;;;;;5048341;28;45562;-64
2022/04/26 08:20:32;;;;;;;;;6.33;5.67;;;;;;;;5047848;28;45695;-64
2022/04/26 08:22:58;;;;;;;;;4.00;4.00;;;;;;;;5047288;28;45447;-64
2022/04/26 08:28:07;;;;;;;;;9.67;8.67;;;;;;;;5045240;28;45542;-66
2022/04/26 08:30:33;;;;;;;;;3.00;3.00;;;;;;;;5048658;28;45385;-65
2022/04/26 08:32:59;;;;;;;;;3.33;3.33;;;;;;;;5049015;28;45551;-66
2022/04/26 08:35:25;;;;;;;;;1.00;1.00;;;;;;;;5047425;28;45431;-66
2022/04/26 08:37:50;;;;;;;;;3.00;2.33;;;;;;;;5048291;28;46442;-66
2022/04/26 08:40:16;;;;;;;;;5.33;5.33;;;;;;;;5048738;28;45549;-65
2022/04/26 08:42:42;;;;;;;;;3.00;2.33;;;;;;;;5042028;28;45549;-66
2022/04/26 08:45:09;;;;;;;;;2.67;2.67;;;;;;;;5041641;28;45671;-65
2022/04/26 08:53:04;;;;;;;;;3.67;3.00;;;;;;;;5039001;28;45296;-67
2022/04/26 08:55:31;;;;;;;;;3.67;3.00;;;;;;;;5038816;28;45350;-66
2022/04/26 08:57:57;;;;;;;;;4.67;3.33;;;;;;;;5038468;28;45484;-70
2022/04/26 09:00:22;;;;;;;;;4.00;4.00;;;;;;;;5038380;28;45406;-68
2022/04/26 09:02:59;;;;;;;;;4.67;4.67;;;;;;;;5041072;28;45545;-66
2022/04/26 09:05:24;;;;;;;;;3.67;3.33;;;;;;;;5056074;28;45408;-67
2022/04/26 09:07:49;;;;;;;;;6.33;5.00;;;;;;;;5058458;28;45370;-66
2022/04/26 09:10:16;;;;;;;;;4.00;4.00;;;;;;;;5049564;28;45378;-66
2022/04/26 09:12:59;;;;;;;;;3.67;3.67;;;;;;;;5048785;28;45360;-66
2022/04/26 09:15:24;;;;;;;;;5.00;5.00;;;;;;;;5044100;28;45425;-66
2022/04/26 09:17:50;;;;;;;;;2.67;2.67;;;;;;;;5047597;28;45577;-66
2022/04/26 09:20:30;;;;;;;;;4.00;3.33;;;;;;;;5047982;28;45553;-65
2022/04/26 09:22:59;;;;;;;;;4.67;4.33;;;;;;;;5046963;28;45495;-65
2022/04/26 09:25:24;;;;;;;;;2.67;2.67;;;;;;;;5025680;28;45386;-65
2022/04/26 09:27:57;;;;;;;;;3.00;3.00;;;;;;;;5039634;28;46110;-65
2022/04/26 09:30:27;;;;;;;;;3.00;3.00;;;;;;;;5037607;28;45604;-65
2022/04/26 09:32:52;;;;;;;;;4.00;4.00;;;;;;;;5037457;28;45232;-65
2022/04/26 09:35:22;;;;;;;;;4.67;4.67;;;;;;;;5038136;28;45354;-65
2022/04/26 09:37:47;;;;;;;;;6.00;5.00;;;;;;;;5036718;28;47415;-65
2022/04/26 09:40:13;;;;;;;;;5.00;4.00;;;;;;;;5037324;28;45486;-65
2022/04/26 09:42:38;;;;;;;;;5.00;5.00;;;;;;;;5038296;28;45391;-65
2022/04/26 09:45:04;;;;;;;;;4.00;4.00;;;;;;;;5038117;28;45287;-65
2022/04/26 09:47:37;;;;;;;;;3.00;3.00;;;;;;;;5037939;28;45461;-65
2022/04/26 09:50:09;;;;;;;;;3.67;3.67;;;;;;;;5037520;28;45350;-66
2022/04/26 09:52:35;;;;;;;;;4.00;4.00;;;;;;;;5038119;28;45406;-65
2022/04/26 09:55:00;;;;;;;;;4.00;3.67;;;;;;;;5038049;28;45251;-65
2022/04/26 09:57:28;;;;;;;;;5.00;4.67;;;;;;;;5036969;28;46144;-65
2022/04/26 09:59:53;;;;;;;;;2.33;2.33;;;;;;;;5037828;28;45553;-65
2022/04/26 10:02:22;;;;;;;;;2.00;2.00;;;;;;;;5037749;28;45565;-65
2022/04/26 10:04:52;;;;;;;;;2.33;2.33;;;;;;;;5037994;28;45540;-66
2022/04/26 10:07:19;;;;;;;;;2.67;2.67;;;;;;;;5037416;28;45422;-66
2022/04/26 10:09:46;;;;;;;;;2.00;2.00;;;;;;;;5035887;28;45399;-67
2022/04/26 10:12:15;;;;;;;;;4.33;4.00;;;;;;;;5037443;28;45496;-67
2022/04/26 10:14:42;;;;;;;;;4.67;4.00;;;;;;;;5037950;28;45684;-66
2022/04/26 10:17:07;;;;;;;;;4.00;4.00;;;;;;;;5037315;28;45462;-66
2022/04/26 10:19:38;;;;;;;;;3.33;3.33;;;;;;;;5037231;28;46010;-66
2022/04/26 10:22:03;;;;;;;;;2.00;2.00;;;;;;;;5037215;28;45489;-66
2022/04/26 10:24:29;;;;;;;;;3.67;3.67;;;;;;;;5037133;28;45462;-65
2022/04/26 10:27:14;;;;;;;;;4.00;4.00;;;;;;;;5036781;28;45274;-66
2022/04/26 10:29:43;;;;;;;;;4.67;4.33;;;;;;;;5037019;28;45512;-66
2022/04/26 10:32:10;;;;;;;;;7.00;7.00;;;;;;;;5037233;28;45314;-66
2022/04/26 10:34:36;;;;;;;;;3.33;3.33;;;;;;;;5036969;28;45658;-66
2022/04/26 10:37:08;;;;;;;;;1.67;1.67;;;;;;;;5036935;28;45349;-66
2022/04/26 10:39:38;;;;;;;;;2.67;2.33;;;;;;;;5035541;28;45505;-66
2022/04/26 10:42:07;;;;;;;;;1.67;1.67;;;;;;;;5037095;28;45248;-67
2022/04/26 10:44:38;;;;;;;;;1.67;1.67;;;;;;;;5037195;28;45307;-65
2022/04/26 10:47:03;;;;;;;;;2.67;2.67;;;;;;;;5036700;28;45395;-66
2022/04/26 10:49:40;;;;;;;;;2.67;2.67;;;;;;;;5037109;28;45453;-66
2022/04/26 10:52:15;;;;;;;;;4.00;4.00;;;;;;;;5037004;28;45253;-67
2022/04/26 10:54:55;;;;;;;;;2.67;2.67;;;;;;;;5035798;28;45510;-66
2022/04/26 10:57:28;;;;;;;;;4.67;3.00;;;;;;;;5036323;28;46387;-65
2022/04/26 10:59:56;;;;;;;;;2.00;2.00;;;;;;;;5036583;28;45535;-66
2022/04/26 11:02:23;;;;;;;;;9.00;8.67;;;;;;;;5036467;28;45343;-66
2022/04/26 11:05:16;;;;;;;;;2.00;2.00;;;;;;;;5036550;28;45457;-66
2022/04/26 11:07:46;;;;;;;;;4.33;4.00;;;;;;;;5035411;28;46385;-66
2022/04/26 11:10:13;;;;;;;;;2.00;2.00;;;;;;;;5035791;28;45232;-65
2022/04/26 11:12:39;;;;;;;;;2.67;2.67;;;;;;;;5036689;28;45457;-65
2022/04/26 11:15:10;;;;;;;;;2.67;2.67;;;;;;;;5036597;28;45304;-66
2022/04/26 11:17:36;;;;;;;;;3.00;3.00;;;;;;;;5035741;28;45930;-66
2022/04/26 11:20:04;;;;;;;;;3.67;3.67;;;;;;;;5036142;28;45204;-65
2022/04/26 11:22:29;;;;;;;;;2.33;2.00;;;;;;;;5036242;28;45506;-65
2022/04/26 11:30:33;;;;;;;;;2.67;2.67;;;;;;;;5036253;28;45406;-65
2022/04/26 11:33:00;;;;;;;;;7.00;6.00;;;;;;;;5035882;28;45323;-66
2022/04/26 11:35:25;;;;;;;;;3.00;3.00;;;;;;;;5036499;28;45460;-67
2022/04/26 11:37:55;;;;;;;;;3.00;3.00;;;;;;;;5036106;28;46005;-66
2022/04/26 11:40:34;;;;;;;;;2.00;2.00;;;;;;;;5036380;28;46122;-68
2022/04/26 11:43:10;;;;;;;;;3.00;3.00;;;;;;;;5036482;28;45380;-65
2022/04/26 11:45:36;;;;;;;;;4.00;4.00;;;;;;;;5036688;28;45451;-66
2022/04/26 11:48:02;;;;;;;;;4.33;4.00;;;;;;;;5036067;28;45406;-66
2022/04/26 11:50:28;;;;;;;;;3.00;3.00;;;;;;;;5036149;28;45456;-68
2022/04/26 11:53:00;;;;;;;;;3.00;3.00;;;;;;;;5036279;28;45481;-66
2022/04/26 11:55:26;;;;;;;;;5.00;4.00;;;;;;;;5036406;28;45481;-68
2022/04/26 11:57:52;;;;;;;;;3.00;2.00;;;;;;;;5036108;28;46154;-68
2022/04/26 12:00:21;;;;;;;;;4.00;3.00;;;;;;;;5035947;28;45427;-66
2022/04/26 12:02:48;;;;;;;;;3.00;2.67;;;;;;;;5036506;28;45255;-66
2022/04/26 12:05:14;;;;;;;;;0.00;0.00;;;;;;;;5036397;28;45516;-66
2022/04/26 12:07:40;;;;;;;;;2.00;2.00;;;;;;;;5035562;28;45537;-66
2022/04/26 12:10:23;;;;;;;;;3.00;2.00;;;;;;;;5035816;28;45350;-65
2022/04/26 12:13:00;;;;;;;;;3.00;3.00;;;;;;;;5036090;28;45318;-66
2022/04/26 12:15:27;;;;;;;;;2.00;1.00;;;;;;;;5035718;28;45358;-66
2022/04/26 12:18:02;;;;;;;;;4.00;3.33;;;;;;;;5035421;28;45421;-66
2022/04/26 12:20:28;;;;;;;;;4.33;4.00;;;;;;;;5035911;28;45475;-65
2022/04/26 12:22:54;;;;;;;;;3.00;3.00;;;;;;;;5039096;28;45514;-66
2022/04/26 12:25:19;;;;;;;;;3.00;2.33;;;;;;;;5039511;28;45488;-66
2022/04/26 12:27:44;;;;;;;;;3.33;3.33;;;;;;;;5039173;28;45402;-66
2022/04/26 12:30:10;;;;;;;;;3.00;3.00;;;;;;;;5039223;28;45272;-66
2022/04/26 12:32:40;;;;;;;;;2.00;2.00;;;;;;;;5038893;28;45433;-66
2022/04/26 12:35:08;;;;;;;;;4.00;3.33;;;;;;;;5039211;28;45363;-66
2022/04/26 12:37:34;;;;;;;;;5.00;4.00;;;;;;;;5038915;28;45810;-66
2022/04/26 12:40:07;;;;;;;;;3.00;3.00;;;;;;;;5037734;28;45534;-66
2022/04/26 12:42:45;;;;;;;;;2.33;2.33;;;;;;;;5039176;28;45458;-65
2022/04/26 12:45:21;;;;;;;;;3.00;3.00;;;;;;;;5039120;28;45231;-65
2022/04/26 12:50:51;;;;;;;;;3.00;3.00;;;;;;;;5038771;28;45483;-67
2022/04/26 12:53:21;;;;;;;;;3.00;3.00;;;;;;;;5039070;28;45488;-66
2022/04/26 12:55:47;;;;;;;;;4.00;4.00;;;;;;;;5039369;28;45510;-66
2022/04/26 12:58:13;;;;;;;;;2.67;2.67;;;;;;;;5038780;28;46013;-66
2022/04/26 13:00:43;;;;;;;;;3.00;3.00;;;;;;;;5038720;28;45223;-66
2022/04/26 13:03:09;;;;;;;;;3.00;3.00;;;;;;;;5038695;28;45469;-66
2022/04/26 13:05:41;;;;;;;;;3.00;3.00;;;;;;;;5038864;28;45303;-66
2022/04/26 13:08:07;;;;;;;;;2.67;2.33;;;;;;;;5038186;28;45477;-66
2022/04/26 13:10:33;;;;;;;;;3.00;3.00;;;;;;;;5038565;28;45495;-66
2022/04/26 13:12:58;;;;;;;;;2.00;2.00;;;;;;;;5038559;28;45379;-66
2022/04/26 13:15:24;;;;;;;;;3.00;3.00;;;;;;;;5038613;28;45335;-66
2022/04/26 13:17:49;;;;;;;;;2.33;2.33;;;;;;;;5038462;28;45272;-66
2022/04/26 13:20:15;;;;;;;;;4.00;4.00;;;;;;;;5038280;28;45232;-66
2022/04/26 13:22:41;;;;;;;;;3.00;3.00;;;;;;;;5038412;28;45549;-66
2022/04/26 13:25:07;;;;;;;;;3.00;2.00;;;;;;;;5038674;28;45387;-66
2022/04/26 13:27:34;;;;;;;;;3.67;3.00;;;;;;;;5037884;28;45509;-66
2022/04/26 13:29:59;;;;;;;;;2.67;2.67;;;;;;;;5038179;28;45454;-66
2022/04/26 13:32:25;;;;;;;;;3.00;3.00;;;;;;;;5037200;28;45524;-66
2022/04/26 13:34:52;;;;;;;;;2.33;2.33;;;;;;;;5038465;28;45431;-66
2022/04/26 13:37:19;;;;;;;;;3.00;3.00;;;;;;;;5037928;28;46070;-66
2022/04/26 13:39:45;;;;;;;;;3.00;3.00;;;;;;;;5037658;28;45382;-66
2022/04/26 13:42:11;;;;;;;;;2.67;2.67;;;;;;;;5037631;28;45303;-66
2022/04/26 13:44:36;;;;;;;;;4.00;3.00;;;;;;;;5053184;28;45420;-66
2022/04/26 13:47:04;;;;;;;;;3.67;3.67;;;;;;;;5037266;28;45581;-66
2022/04/26 13:49:31;;;;;;;;;2.00;2.00;;;;;;;;5037639;28;45283;-66
2022/04/26 13:51:57;;;;;;;;;3.00;3.00;;;;;;;;5037378;28;46218;-66
2022/04/26 13:54:23;;;;;;;;;2.67;2.00;;;;;;;;5037751;28;45403;-66
2022/04/26 13:56:49;;;;;;;;;3.00;2.33;;;;;;;;5037497;28;45502;-66
2022/04/26 13:59:15;;;;;;;;;2.33;2.00;;;;;;;;5037757;28;45355;-66
2022/04/26 14:01:40;;;;;;;;;2.67;2.67;;;;;;;;5037691;28;45399;-66
2022/04/26 14:04:05;;;;;;;;;3.67;2.00;;;;;;;;5037955;28;45371;-66
2022/04/26 14:06:31;;;;;;;;;3.00;2.67;;;;;;;;5037546;28;45392;-66
2022/04/26 14:08:56;;;;;;;;;2.00;2.00;;;;;;;;5037867;28;45405;-66
2022/04/26 14:11:22;;;;;;;;;4.33;4.00;;;;;;;;5038020;28;45753;-66
2022/04/26 14:21:59;;;;;;;;;2.00;2.00;;;;;;;;5037427;28;45398;-66
2022/04/26 14:24:25;;;;;;;;;2.00;2.00;;;;;;;;5037425;28;45398;-66
2022/04/26 14:26:51;;;;;;;;;2.33;2.00;;;;;;;;5036990;28;45350;-66
2022/04/26 14:29:16;;;;;;;;;1.67;1.67;;;;;;;;5036921;28;45431;-66
2022/04/26 14:31:42;;;;;;;;;2.33;2.33;;;;;;;;5037196;28;45485;-66
2022/04/26 14:34:08;;;;;;;;;3.00;3.00;;;;;;;;5037111;28;45493;-66
2022/04/26 14:36:34;;;;;;;;;3.00;3.00;;;;;;;;5036613;28;45564;-67
2022/04/26 14:38:59;;;;;;;;;3.00;3.00;;;;;;;;5036855;28;45281;-66
2022/04/26 14:41:26;;;;;;;;;4.00;4.00;;;;;;;;5037251;28;45330;-67
2022/04/26 14:43:51;;;;;;;;;2.00;2.00;;;;;;;;5037298;28;45265;-66
2022/04/26 14:46:17;;;;;;;;;2.00;2.00;;;;;;;;5036449;28;45245;-67
2022/04/26 14:48:43;;;;;;;;;4.00;3.00;;;;;;;;5036639;28;45529;-66
2022/04/26 14:51:10;;;;;;;;;1.33;1.33;;;;;;;;5037050;28;45382;-66
2022/04/26 14:53:35;;;;;;;;;2.33;2.00;;;;;;;;5035667;28;45515;-66
2022/04/26 14:56:00;;;;;;;;;2.00;2.00;;;;;;;;5036707;28;45353;-66
2022/04/26 14:58:26;;;;;;;;;2.00;2.00;;;;;;;;5036857;28;45459;-66
2022/04/26 15:00:51;;;;;;;;;2.67;2.67;;;;;;;;5036910;28;45791;-66
2022/04/26 15:03:17;;;;;;;;;2.00;2.00;;;;;;;;5036892;28;45299;-65
2022/04/26 15:05:43;;;;;;;;;3.33;3.00;;;;;;;;5036307;28;46240;-66
2022/04/26 15:10:52;;;;;;;;;3.67;3.67;;;;;;;;5036410;28;45497;-66
2022/04/26 15:18:45;;;;;;;;;4.00;4.00;;;;;;;;5036290;28;45387;-66
2022/04/26 15:21:10;;;;;;;;;2.00;2.00;;;;;;;;5036356;28;45252;-66
2022/04/26 15:23:36;;;;;;;;;2.33;2.33;;;;;;;;5036778;28;45577;-66
2022/04/26 15:26:06;;;;;;;;;4.00;3.00;;;;;;;;5036225;28;45470;-66
2022/04/26 15:28:31;;;;;;;;;2.67;2.00;;;;;;;;5036231;28;45322;-66
2022/04/26 15:30:56;;;;;;;;;2.00;2.00;;;;;;;;5036985;28;45313;-65
2022/04/26 15:33:23;;;;;;;;;2.67;2.67;;;;;;;;5036493;28;45394;-65
2022/04/26 15:35:48;;;;;;;;;2.33;2.33;;;;;;;;5036033;28;45464;-65
2022/04/26 15:38:14;;;;;;;;;2.00;2.00;;;;;;;;5035825;28;45503;-65
2022/04/26 15:40:41;;;;;;;;;2.67;2.67;;;;;;;;5036156;28;45488;-67
2022/04/26 15:43:06;;;;;;;;;3.00;2.00;;;;;;;;5035835;28;45581;-65
2022/04/26 15:45:32;;;;;;;;;2.00;2.00;;;;;;;;5036105;28;45539;-66
2022/04/26 15:47:58;;;;;;;;;3.00;2.00;;;;;;;;5036498;28;45469;-65
2022/04/26 15:50:23;;;;;;;;;3.00;2.67;;;;;;;;5035888;28;45313;-66
2022/04/26 15:52:50;;;;;;;;;2.33;2.33;;;;;;;;5036021;28;45375;-66
2022/04/26 15:55:16;;;;;;;;;2.67;2.00;;;;;;;;5035938;28;46465;-66
2022/04/26 15:57:42;;;;;;;;;3.00;2.67;;;;;;;;5039176;28;45840;-65
2022/04/26 16:00:07;;;;;;;;;3.00;3.00;;;;;;;;5039292;28;45370;-66
2022/04/26 16:02:33;;;;;;;;;2.00;2.00;;;;;;;;5039375;28;45513;-66
2022/04/26 16:04:59;;;;;;;;;2.00;2.00;;;;;;;;5039006;28;45490;-66
2022/04/26 16:07:24;;;;;;;;;3.00;3.00;;;;;;;;5038819;28;45340;-65
2022/04/26 16:20:45;;;;;;;;;2.00;2.00;;;;;;;;5039042;28;45449;-66
2022/04/26 16:23:10;;;;;;;;;2.33;2.00;;;;;;;;5039476;28;45266;-66
2022/04/26 16:25:35;;;;;;;;;3.00;3.00;;;;;;;;5038939;28;46115;-65
2022/04/26 16:28:01;;;;;;;;;2.33;2.33;;;;;;;;5038955;28;45345;-67
2022/04/26 16:30:29;;;;;;;;;6.33;6.00;;;;;;;;5039166;28;45891;-66
2022/04/26 16:32:54;;;;;;;;;3.00;3.00;;;;;;;;5039293;28;46355;-66
2022/04/26 16:35:21;;;;;;;;;4.00;4.00;;;;;;;;5038978;28;45627;-65
2022/04/26 16:37:46;;;;;;;;;1.00;0.67;;;;;;;;5039192;28;45378;-66
2022/04/26 16:40:12;;;;;;;;;3.67;3.00;;;;;;;;5039005;28;45478;-66
2022/04/26 16:42:38;;;;;;;;;4.00;4.00;;;;;;;;5039173;28;45434;-66
2022/04/26 16:45:04;;;;;;;;;4.00;4.00;;;;;;;;5039198;28;46357;-66
2022/04/26 16:47:29;;;;;;;;;3.00;3.00;;;;;;;;5039032;28;45407;-66
2022/04/26 16:49:55;;;;;;;;;3.00;3.00;;;;;;;;5038566;28;45505;-66
2022/04/26 16:52:20;;;;;;;;;4.00;4.00;;;;;;;;5038403;28;45473;-66
2022/04/26 16:54:45;;;;;;;;;3.00;3.00;;;;;;;;5038670;28;46540;-66
2022/04/26 16:57:14;;;;;;;;;2.00;2.00;;;;;;;;5037401;28;45478;-66
2022/04/26 16:59:39;;;;;;;;;6.00;4.33;;;;;;;;5038902;28;45664;-66
2022/04/26 17:02:05;;;;;;;;;4.00;2.67;;;;;;;;5039007;28;45253;-66
2022/04/26 17:04:31;;;;;;;;;5.00;4.67;;;;;;;;5039061;28;46001;-66
2022/04/26 17:06:57;;;;;;;;;2.33;2.00;;;;;;;;5037694;28;45315;-66
2022/04/26 17:09:23;;;;;;;;;3.00;3.00;;;;;;;;5037224;28;46287;-66
2022/04/26 17:11:48;;;;;;;;;0.33;0.33;;;;;;;;5038793;28;45447;-65
2022/04/26 17:14:14;;;;;;;;;3.67;2.33;;;;;;;;5038244;28;45402;-65
2022/04/26 17:16:43;;;;;;;;;2.00;2.00;;;;;;;;5038940;28;45458;-65
2022/04/26 17:19:08;;;;;;;;;3.00;3.00;;;;;;;;5038628;28;45461;-66
2022/04/26 17:21:33;;;;;;;;;4.00;3.00;;;;;;;;5039178;28;45431;-66
2022/04/26 17:24:00;;;;;;;;;3.00;3.00;;;;;;;;5038459;28;45460;-66
2022/04/26 17:26:26;;;;;;;;;4.00;4.00;;;;;;;;5038490;28;45319;-66
2022/04/26 17:28:51;;;;;;;;;3.00;2.00;;;;;;;;5038635;28;45331;-66
2022/04/26 17:31:17;;;;;;;;;3.67;3.67;;;;;;;;5038631;28;45307;-66
2022/04/26 17:33:44;;;;;;;;;4.00;4.00;;;;;;;;5038166;28;46000;-66
2022/04/26 17:36:10;;;;;;;;;2.00;2.00;;;;;;;;5038417;28;45271;-66
2022/04/26 17:38:36;;;;;;;;;3.00;3.00;;;;;;;;5038620;28;45242;-66
2022/04/26 17:41:02;;;;;;;;;3.00;3.00;;;;;;;;5038564;28;45430;-65
2022/04/26 17:43:27;;;;;;;;;3.00;3.00;;;;;;;;5038069;28;45358;-65
2022/04/26 17:45:52;;;;;;;;;3.00;3.00;;;;;;;;5038073;28;45487;-66
2022/04/26 17:48:18;;;;;;;;;4.00;4.00;;;;;;;;5038246;28;45517;-66
2022/04/26 17:50:44;;;;;;;;;7.33;7.33;;;;;;;;5038393;28;45404;-65
2022/04/26 17:58:43;;;;;;;;;4.00;4.00;;;;;;;;5037669;28;46181;-65
2022/04/26 18:01:09;;;;;;;;;3.00;2.33;;;;;;;;5037955;28;45528;-66
2022/04/26 18:03:35;;;;;;;;;4.00;3.00;;;;;;;;5037919;28;45906;-66
2022/04/26 18:06:01;;;;;;;;;4.00;4.00;;;;;;;;5037832;28;45165;-65
2022/04/26 18:08:27;;;;;;;;;3.00;3.00;;;;;;;;5037732;28;45249;-65
2022/04/26 18:10:52;;;;;;;;;4.00;4.00;;;;;;;;5038108;28;45466;-66
2022/04/26 18:13:18;;;;;;;;;2.00;2.00;;;;;;;;5037550;28;46172;-65
2022/04/26 18:15:43;;;;;;;;;4.00;4.00;;;;;;;;5033337;28;45476;-65
2022/04/26 18:18:09;;;;;;;;;4.67;4.00;;;;;;;;5036343;28;45942;-68
2022/04/26 18:20:34;;;;;;;;;3.00;3.00;;;;;;;;5036912;28;45445;-65
2022/04/26 18:23:00;;;;;;;;;4.00;4.00;;;;;;;;5036416;28;46138;-65
2022/04/26 18:28:09;;;;;;;;;4.00;3.00;;;;;;;;5036465;28;45366;-66
2022/04/26 18:30:35;;;;;;;;;3.00;3.00;;;;;;;;5037252;28;45506;-66
2022/04/26 18:33:00;;;;;;;;;5.00;4.00;;;;;;;;5033898;28;45542;-64
2022/04/26 18:35:26;;;;;;;;;2.00;2.00;;;;;;;;5036215;28;45443;-65
2022/04/26 18:37:51;;;;;;;;;4.00;4.00;;;;;;;;5036645;28;45417;-65
2022/04/26 18:40:17;;;;;;;;;6.00;6.00;;;;;;;;5036633;28;45474;-65
2022/04/26 18:42:42;;;;;;;;;6.00;6.00;;;;;;;;5036409;28;45942;-65
2022/04/26 18:45:08;;;;;;;;;5.33;5.33;;;;;;;;5037042;28;45521;-65
2022/04/26 18:47:33;;;;;;;;;5.33;5.33;;;;;;;;5036159;28;45368;-66
2022/04/26 18:49:59;;;;;;;;;3.00;3.00;;;;;;;;5044230;28;45501;-66
2022/04/26 18:52:24;;;;;;;;;3.33;3.33;;;;;;;;5047189;28;45977;-67
2022/04/26 18:54:50;;;;;;;;;3.00;3.00;;;;;;;;5044696;28;45507;-67
2022/04/26 18:57:17;;;;;;;;;5.00;5.00;;;;;;;;5043558;28;45369;-72
2022/04/26 18:59:43;;;;;;;;;4.00;3.00;;;;;;;;5035808;28;45544;-68
2022/04/26 19:02:08;;;;;;;;;3.00;3.00;;;;;;;;5036224;28;45994;-67
2022/04/26 19:04:33;;;;;;;;;3.67;3.67;;;;;;;;5036211;28;45736;-67
2022/04/26 19:06:59;;;;;;;;;2.00;2.00;;;;;;;;5044682;28;45410;-66
2022/04/26 19:09:24;;;;;;;;;3.00;3.00;;;;;;;;5035858;28;45408;-67